PWSweather.com
Personal Weather Stations
Station Observations
KAZPHOEN90
RayThunderhill, Phoenix, AZ

RayThunderhillPhoenix, AZ

Lat: 33.312, Lon: -112.029

Elevation: 1260

Station Type: Davis Vantage VUE

Latest ConditionsUpdated 6:30:02 AM MST Wednesday, May 4, 2016
Currently Today's Max Today's Min Today's Average
Temperature 63.3°F17.4°C 75.0°F23.9°C 62.2°F16.8°C 67.3°F19.6°C
Dew Point 41.0°F5.0°C 41.0°F5.0°C 33.0°F0.6°C 36.4°F2.4°C
Winds Calm Calm Calm NECalm NE - Calm Calm
Wind Gusts -- 1.0 mph1.6 kmh - -
Humidity 44% 44% 22% 33%
Pressure 29.80 in1009.1 mb 29.80 in1009.1 mb 29.76 in1007.8 mb -
Hour Temp Dew Point Humidity Winds Wind Gusts Pressure Precip Precip Rate Daily Precip Total
06:30 AM 63.3°F17.4°C 41.0°F5.0°C 44% Calm Calm -- 29.80 in1009.1 mb - 0.00 in0.0 mm 0.00 in0.0 mm
06:15 AM 62.5°F16.9°C 40.3°F4.6°C 44% Calm Calm -- 29.80 in1009.1 mb - 0.00 in0.0 mm 0.00 in0.0 mm
06:00 AM 62.2°F16.8°C 39.4°F4.1°C 43% Calm Calm -- 29.80 in1009.1 mb - 0.00 in0.0 mm 0.00 in0.0 mm
05:45 AM 62.2°F16.8°C 38.8°F3.8°C 42% Calm Calm -- 29.79 in1008.8 mb - 0.00 in0.0 mm 0.00 in0.0 mm
05:30 AM 62.7°F17.1°C 38.6°F3.7°C 41% Calm Calm -- 29.79 in1008.8 mb - 0.00 in0.0 mm 0.00 in0.0 mm
05:15 AM 63.1°F17.3°C 38.4°F3.6°C 40% Calm Calm -- 29.77 in1008.1 mb - 0.00 in0.0 mm 0.00 in0.0 mm
05:00 AM 63.7°F17.6°C 37.6°F3.1°C 38% Calm Calm -- 29.78 in1008.5 mb - 0.00 in0.0 mm 0.00 in0.0 mm
04:45 AM 64.5°F18.1°C 37.6°F3.1°C 37% Calm Calm -- 29.78 in1008.5 mb - 0.00 in0.0 mm 0.00 in0.0 mm
04:30 AM 64.7°F18.2°C 37.1°F2.8°C 36% Calm Calm -- 29.78 in1008.5 mb - 0.00 in0.0 mm 0.00 in0.0 mm
04:15 AM 65.3°F18.5°C 37.6°F3.1°C 36% Calm Calm -- 29.77 in1008.1 mb - 0.00 in0.0 mm 0.00 in0.0 mm
04:00 AM 65.6°F18.7°C 37.2°F2.9°C 35% Calm Calm -- 29.77 in1008.1 mb - 0.00 in0.0 mm 0.00 in0.0 mm
03:45 AM 65.6°F18.7°C 37.2°F2.9°C 35% Calm Calm -- 29.77 in1008.1 mb - 0.00 in0.0 mm 0.00 in0.0 mm
03:30 AM 66.3°F19.1°C 36.3°F2.4°C 33% Calm Calm -- 29.77 in1008.1 mb - 0.00 in0.0 mm 0.00 in0.0 mm
03:15 AM 68.1°F20.1°C 36.3°F2.4°C 31% Calm Calm -- 29.77 in1008.1 mb - 0.00 in0.0 mm 0.00 in0.0 mm
03:00 AM 67.4°F19.7°C 35.7°F2.1°C 31% Calm Calm -- 29.77 in1008.1 mb - 0.00 in0.0 mm 0.00 in0.0 mm
02:45 AM 68.5°F20.3°C 34.9°F1.6°C 29% Calm Calm -- 29.77 in1008.1 mb - 0.00 in0.0 mm 0.00 in0.0 mm
02:30 AM 68.6°F20.3°C 34.2°F1.2°C 28% Calm Calm -- 29.77 in1008.1 mb - 0.00 in0.0 mm 0.00 in0.0 mm
02:15 AM 69.8°F21.0°C 34.3°F1.3°C 27% Calm Calm -- 29.77 in1008.1 mb - 0.00 in0.0 mm 0.00 in0.0 mm
02:00 AM 71.2°F21.8°C 34.6°F1.4°C 26% Calm Calm -- 29.77 in1008.1 mb - 0.00 in0.0 mm 0.00 in0.0 mm
01:45 AM 70.6°F21.4°C 34.1°F1.2°C 26% Calm Calm -- 29.76 in1007.8 mb - 0.00 in0.0 mm 0.00 in0.0 mm
01:30 AM 71.5°F21.9°C 34.8°F1.6°C 26% Calm Calm 1.0 mph1.6 kmh 29.76 in1007.8 mb - 0.00 in0.0 mm 0.00 in0.0 mm
01:15 AM 70.2°F21.2°C 35.5°F1.9°C 28% Calm Calm -- 29.77 in1008.1 mb - 0.00 in0.0 mm 0.00 in0.0 mm
01:00 AM 70.2°F21.2°C 35.5°F1.9°C 28% Calm Calm -- 29.77 in1008.1 mb - 0.00 in0.0 mm 0.00 in0.0 mm
12:45 AM 70.0°F21.1°C 33.5°F0.8°C 26% Calm Calm -- 29.77 in1008.1 mb - 0.00 in0.0 mm 0.00 in0.0 mm
12:30 AM 72.4°F22.4°C 34.6°F1.4°C 25% Calm Calm -- 29.76 in1007.8 mb - 0.00 in0.0 mm 0.00 in0.0 mm
12:15 AM 73.0°F22.8°C 33.0°F0.6°C 23% Calm Calm -- 29.76 in1007.8 mb - 0.00 in0.0 mm 0.00 in0.0 mm
12:00 AM 75.0°F23.9°C 33.6°F0.9°C 22% Calm Calm -- 29.77 in1008.1 mb - 0.00 in0.0 mm 0.00 in0.0 mm